Time;durP1;ratioP1;P1;durP2;ratioP2;P2;SDS_P1;SDS_P2;PMS_P1;PMS_P2;Temp;Humidity;BMP_temperature;BMP_pressure;BME280_temperature;BME280_humidity;BME280_pressure;Samples;Min_cycle;Max_cycle;Signal;HPM_P1;HPM_P2
2024/01/21 00:01:39;;;;;;;10.57;4.43;;;;;;;;;;5030274;28;20064;-71
2024/01/21 00:04:06;;;;;;;7.10;4.43;;;;;;;;;;5040346;28;20501;-71
2024/01/21 00:06:31;;;;;;;13.88;6.43;;;;;;;;;;5022771;28;20490;-71
2024/01/21 00:08:57;;;;;;;14.10;5.43;;;;;;;;;;5012084;28;20041;-71
2024/01/21 00:11:22;;;;;;;9.98;5.45;;;;;;;;;;5023832;28;20456;-71
2024/01/21 00:13:47;;;;;;;9.82;5.50;;;;;;;;;;5036328;28;20041;-71
2024/01/21 00:16:13;;;;;;;8.43;3.92;;;;;;;;;;5039508;28;20041;-71
2024/01/21 00:18:38;;;;;;;6.82;3.60;;;;;;;;;;5042590;28;20075;-72
2024/01/21 00:21:04;;;;;;;7.22;3.78;;;;;;;;;;5030999;28;20066;-71
2024/01/21 00:23:29;;;;;;;6.95;3.50;;;;;;;;;;5015463;28;20044;-72
2024/01/21 00:25:55;;;;;;;8.77;4.32;;;;;;;;;;5032020;28;20072;-71
2024/01/21 00:28:20;;;;;;;9.60;4.65;;;;;;;;;;5025015;28;20059;-71
2024/01/21 00:30:45;;;;;;;7.90;4.57;;;;;;;;;;5032274;28;20033;-71
2024/01/21 00:33:11;;;;;;;10.57;4.05;;;;;;;;;;5021940;28;20517;-71
2024/01/21 00:35:36;;;;;;;9.05;4.45;;;;;;;;;;5026318;28;20727;-71
2024/01/21 00:38:02;;;;;;;8.15;4.18;;;;;;;;;;5016383;28;20033;-72
2024/01/21 00:40:27;;;;;;;8.23;3.80;;;;;;;;;;5049234;28;20694;-71
2024/01/21 00:42:56;;;;;;;6.10;3.40;;;;;;;;;;5030387;28;20053;-72
2024/01/21 00:45:21;;;;;;;7.88;3.97;;;;;;;;;;5024050;28;20533;-72
2024/01/21 00:47:46;;;;;;;8.80;4.63;;;;;;;;;;5033468;28;20086;-71
2024/01/21 00:50:12;;;;;;;7.78;4.45;;;;;;;;;;5032378;28;20120;-72
2024/01/21 00:52:37;;;;;;;8.98;4.18;;;;;;;;;;5022667;28;20103;-71
2024/01/21 00:55:03;;;;;;;9.52;5.22;;;;;;;;;;5030139;28;20039;-71
2024/01/21 00:57:28;;;;;;;11.10;3.85;;;;;;;;;;5031227;28;20028;-71
2024/01/21 00:59:54;;;;;;;10.43;5.47;;;;;;;;;;5018337;28;20051;-72
2024/01/21 01:02:19;;;;;;;9.40;5.07;;;;;;;;;;5031446;28;20039;-72
2024/01/21 01:04:44;;;;;;;9.18;4.05;;;;;;;;;;5046682;28;20115;-71
2024/01/21 01:07:10;;;;;;;9.25;4.47;;;;;;;;;;5006816;28;20642;-71
2024/01/21 01:09:36;;;;;;;7.60;4.40;;;;;;;;;;5020025;28;20037;-71
2024/01/21 01:12:02;;;;;;;13.88;6.75;;;;;;;;;;5014887;28;20507;-71
2024/01/21 01:14:27;;;;;;;15.90;6.53;;;;;;;;;;5040407;28;20120;-71
2024/01/21 01:16:52;;;;;;;11.73;5.53;;;;;;;;;;5019947;28;20041;-71
2024/01/21 01:19:18;;;;;;;11.40;4.13;;;;;;;;;;5021142;28;20545;-72
2024/01/21 01:21:43;;;;;;;11.27;4.55;;;;;;;;;;5023367;28;20422;-71
2024/01/21 01:24:08;;;;;;;11.00;4.90;;;;;;;;;;5029521;28;20033;-72
2024/01/21 01:26:34;;;;;;;9.98;4.28;;;;;;;;;;5035123;28;20048;-71
2024/01/21 01:28:59;;;;;;;8.30;4.20;;;;;;;;;;5024514;28;20045;-71
2024/01/21 01:31:24;;;;;;;10.65;5.35;;;;;;;;;;5039214;28;20051;-71
2024/01/21 01:33:50;;;;;;;14.45;6.90;;;;;;;;;;5039073;28;20136;-71
2024/01/21 01:36:15;;;;;;;13.02;5.80;;;;;;;;;;5009139;28;20452;-71
2024/01/21 01:38:41;;;;;;;11.18;5.47;;;;;;;;;;5027110;28;20040;-71
2024/01/21 01:41:06;;;;;;;11.13;5.70;;;;;;;;;;5025062;28;20132;-71
2024/01/21 01:43:32;;;;;;;11.20;5.65;;;;;;;;;;5039032;28;20052;-71
2024/01/21 01:46:00;;;;;;;11.60;6.45;;;;;;;;;;5038789;28;20127;-71
2024/01/21 01:48:26;;;;;;;11.13;5.35;;;;;;;;;;5014377;28;20127;-72
2024/01/21 01:50:52;;;;;;;11.63;5.45;;;;;;;;;;5034521;28;20154;-71
2024/01/21 01:53:18;;;;;;;10.40;5.65;;;;;;;;;;5037109;28;20036;-72
2024/01/21 01:55:44;;;;;;;11.85;5.85;;;;;;;;;;5038954;28;20039;-71
2024/01/21 01:58:11;;;;;;;11.68;5.75;;;;;;;;;;5035981;28;20044;-71
2024/01/21 02:00:37;;;;;;;10.10;5.93;;;;;;;;;;5032252;28;20114;-71
2024/01/21 02:03:03;;;;;;;11.75;5.25;;;;;;;;;;5028709;28;20064;-71
2024/01/21 02:05:29;;;;;;;10.05;5.25;;;;;;;;;;5035433;28;20029;-72
2024/01/21 02:07:54;;;;;;;11.50;6.30;;;;;;;;;;5035915;28;20043;-71
2024/01/21 02:10:19;;;;;;;13.45;5.90;;;;;;;;;;5034814;28;20520;-71
2024/01/21 02:12:45;;;;;;;16.73;7.43;;;;;;;;;;5032775;28;20056;-72
2024/01/21 02:15:12;;;;;;;14.27;6.13;;;;;;;;;;5035786;28;20674;-72
2024/01/21 02:17:38;;;;;;;10.57;6.57;;;;;;;;;;5020849;28;20513;-72
2024/01/21 02:20:03;;;;;;;14.15;6.38;;;;;;;;;;5036758;28;20192;-72
2024/01/21 02:22:30;;;;;;;11.27;6.47;;;;;;;;;;5029497;28;20036;-71
2024/01/21 02:24:55;;;;;;;11.38;5.80;;;;;;;;;;5024905;28;20033;-72
2024/01/21 02:27:21;;;;;;;14.05;5.65;;;;;;;;;;5033304;28;20041;-73
2024/01/21 02:29:46;;;;;;;12.63;5.72;;;;;;;;;;5039805;28;20053;-72
2024/01/21 02:32:11;;;;;;;10.52;5.25;;;;;;;;;;5024790;28;20044;-73
2024/01/21 02:34:37;;;;;;;11.07;5.82;;;;;;;;;;5024539;28;20076;-72
2024/01/21 02:37:02;;;;;;;14.73;6.18;;;;;;;;;;5015894;28;20069;-72
2024/01/21 02:39:28;;;;;;;9.85;5.30;;;;;;;;;;5026473;28;20091;-72
2024/01/21 02:41:53;;;;;;;11.77;6.68;;;;;;;;;;5033838;28;20124;-71
2024/01/21 02:44:18;;;;;;;12.68;6.03;;;;;;;;;;5030766;28;20083;-72
2024/01/21 02:46:44;;;;;;;12.45;5.88;;;;;;;;;;5017689;28;20045;-72
2024/01/21 02:49:09;;;;;;;11.55;6.05;;;;;;;;;;5024574;28;20048;-71
2024/01/21 02:51:34;;;;;;;7.55;3.15;;;;;;;;;;5030260;28;20065;-72
2024/01/21 02:54:00;;;;;;;13.43;7.13;;;;;;;;;;5023597;28;20044;-72
2024/01/21 02:56:28;;;;;;;13.45;6.95;;;;;;;;;;5032014;28;20624;-72
2024/01/21 02:58:54;;;;;;;13.70;7.78;;;;;;;;;;5032365;28;20025;-72
2024/01/21 03:01:20;;;;;;;15.43;6.90;;;;;;;;;;5016153;28;20402;-72
2024/01/21 03:03:46;;;;;;;14.38;6.53;;;;;;;;;;5024285;28;20041;-72
2024/01/21 03:06:11;;;;;;;13.05;6.78;;;;;;;;;;5023087;28;20053;-72
2024/01/21 03:08:37;;;;;;;11.40;6.72;;;;;;;;;;5024988;28;20136;-71
2024/01/21 03:11:03;;;;;;;11.07;6.07;;;;;;;;;;5033358;28;20449;-71
2024/01/21 03:13:28;;;;;;;15.70;6.85;;;;;;;;;;5030319;28;20359;-71
2024/01/21 03:15:54;;;;;;;12.77;6.15;;;;;;;;;;5024244;28;20086;-71
2024/01/21 03:18:20;;;;;;;13.63;6.68;;;;;;;;;;5021455;28;20033;-71
2024/01/21 03:20:46;;;;;;;10.98;6.03;;;;;;;;;;5022976;28;20468;-70
2024/01/21 03:23:11;;;;;;;12.32;7.32;;;;;;;;;;5027055;28;20033;-71
2024/01/21 03:25:37;;;;;;;14.55;7.03;;;;;;;;;;5019857;28;20038;-70
2024/01/21 03:28:03;;;;;;;13.38;6.18;;;;;;;;;;5028021;28;20126;-71
2024/01/21 03:30:29;;;;;;;22.77;8.70;;;;;;;;;;5018356;28;20114;-71
2024/01/21 03:32:54;;;;;;;20.08;8.85;;;;;;;;;;5035923;28;20071;-71
2024/01/21 03:35:19;;;;;;;22.02;9.60;;;;;;;;;;5020209;28;20037;-71
2024/01/21 03:37:45;;;;;;;23.40;9.20;;;;;;;;;;5015671;28;20143;-71
2024/01/21 03:40:10;;;;;;;18.92;7.85;;;;;;;;;;5030213;28;20782;-71
2024/01/21 03:42:36;;;;;;;15.32;7.95;;;;;;;;;;5030150;28;20083;-72
2024/01/21 03:45:01;;;;;;;19.23;7.85;;;;;;;;;;5006548;28;20037;-71
2024/01/21 03:47:26;;;;;;;17.23;7.22;;;;;;;;;;5027222;28;20736;-71
2024/01/21 03:49:52;;;;;;;18.40;8.57;;;;;;;;;;5019522;28;20505;-71
2024/01/21 03:52:17;;;;;;;21.05;9.20;;;;;;;;;;5032206;28;20087;-71
2024/01/21 03:54:43;;;;;;;21.98;8.45;;;;;;;;;;5027079;28;20116;-71
2024/01/21 03:57:08;;;;;;;19.50;9.13;;;;;;;;;;5032835;28;20048;-71
2024/01/21 03:59:34;;;;;;;19.63;8.77;;;;;;;;;;5023909;28;20037;-71
2024/01/21 04:01:59;;;;;;;22.13;8.88;;;;;;;;;;5030193;28;20052;-71
2024/01/21 04:04:24;;;;;;;19.20;8.20;;;;;;;;;;5032126;28;20037;-71
2024/01/21 04:06:50;;;;;;;17.60;7.00;;;;;;;;;;5025231;28;20541;-71
2024/01/21 04:09:19;;;;;;;19.23;8.38;;;;;;;;;;5026152;28;20033;-71
2024/01/21 04:11:45;;;;;;;17.00;8.18;;;;;;;;;;5031052;28;20044;-70
2024/01/21 04:14:10;;;;;;;17.35;8.88;;;;;;;;;;5016639;28;20127;-70
2024/01/21 04:16:36;;;;;;;13.75;8.30;;;;;;;;;;5029709;28;20095;-71
2024/01/21 04:19:01;;;;;;;15.50;7.35;;;;;;;;;;5021844;28;20065;-71
2024/01/21 04:21:26;;;;;;;15.65;7.00;;;;;;;;;;5024830;28;20048;-71
2024/01/21 04:23:52;;;;;;;15.07;7.15;;;;;;;;;;5035032;28;20036;-71
2024/01/21 04:26:17;;;;;;;16.08;7.90;;;;;;;;;;5024902;28;20040;-71
2024/01/21 04:28:42;;;;;;;18.85;8.45;;;;;;;;;;5009750;28;20542;-71
2024/01/21 04:31:08;;;;;;;18.20;7.85;;;;;;;;;;5025107;28;20048;-71
2024/01/21 04:33:35;;;;;;;14.13;7.32;;;;;;;;;;5022675;28;20034;-71
2024/01/21 04:36:00;;;;;;;15.50;7.53;;;;;;;;;;5024455;28;20091;-71
2024/01/21 04:38:26;;;;;;;13.20;6.40;;;;;;;;;;5021771;28;20045;-70
2024/01/21 04:40:52;;;;;;;14.95;6.45;;;;;;;;;;5026462;28;20040;-71
2024/01/21 04:43:18;;;;;;;14.95;6.80;;;;;;;;;;5021430;28;20179;-71
2024/01/21 04:45:43;;;;;;;16.70;7.93;;;;;;;;;;5027011;28;20460;-71
2024/01/21 04:48:09;;;;;;;14.32;6.78;;;;;;;;;;5026934;28;20073;-70
2024/01/21 04:50:34;;;;;;;11.98;6.05;;;;;;;;;;5031385;28;20029;-71
2024/01/21 04:52:59;;;;;;;14.35;6.75;;;;;;;;;;5027107;28;20855;-71
2024/01/21 04:55:25;;;;;;;15.02;6.10;;;;;;;;;;5019975;28;20600;-71
2024/01/21 04:57:50;;;;;;;11.93;6.20;;;;;;;;;;5000923;28;20050;-71
2024/01/21 05:00:16;;;;;;;11.75;4.53;;;;;;;;;;5026644;28;20166;-71
2024/01/21 05:02:41;;;;;;;16.17;6.45;;;;;;;;;;5026772;28;20106;-71
2024/01/21 05:05:07;;;;;;;14.55;5.78;;;;;;;;;;5026549;28;20033;-71
2024/01/21 05:07:32;;;;;;;12.32;5.45;;;;;;;;;;5032577;28;20037;-71
2024/01/21 05:09:57;;;;;;;11.60;5.43;;;;;;;;;;5028699;28;20715;-72
2024/01/21 05:12:23;;;;;;;11.23;5.72;;;;;;;;;;5004825;28;20097;-71
2024/01/21 05:14:49;;;;;;;14.18;5.70;;;;;;;;;;5022219;28;20041;-72
2024/01/21 05:17:14;;;;;;;10.35;5.53;;;;;;;;;;5033647;28;20115;-71
2024/01/21 05:19:40;;;;;;;13.77;5.70;;;;;;;;;;5031962;28;20648;-72
2024/01/21 05:22:05;;;;;;;15.52;7.00;;;;;;;;;;5023655;28;20041;-71
2024/01/21 05:24:34;;;;;;;20.40;7.25;;;;;;;;;;5025866;28;20055;-72
2024/01/21 05:26:59;;;;;;;13.45;6.60;;;;;;;;;;5020704;28;20136;-72
2024/01/21 05:29:24;;;;;;;19.70;7.40;;;;;;;;;;5020789;28;20038;-71
2024/01/21 05:31:50;;;;;;;17.20;6.80;;;;;;;;;;5010924;28;20040;-71
2024/01/21 05:34:15;;;;;;;28.33;10.80;;;;;;;;;;5028327;28;20032;-71
2024/01/21 05:36:42;;;;;;;31.73;11.15;;;;;;;;;;5033469;28;20797;-72
2024/01/21 05:39:07;;;;;;;17.00;7.22;;;;;;;;;;5032882;28;20112;-71
2024/01/21 05:41:33;;;;;;;17.55;7.50;;;;;;;;;;5016154;28;20045;-71
2024/01/21 05:43:58;;;;;;;16.27;7.72;;;;;;;;;;5033884;28;20521;-71
2024/01/21 05:46:24;;;;;;;13.95;6.93;;;;;;;;;;5019538;28;20045;-72
2024/01/21 05:48:49;;;;;;;12.57;6.32;;;;;;;;;;5027252;28;20044;-73
2024/01/21 05:51:15;;;;;;;14.05;7.28;;;;;;;;;;5026026;28;20087;-72
2024/01/21 05:53:41;;;;;;;16.92;7.82;;;;;;;;;;5031257;28;20049;-72
2024/01/21 05:56:07;;;;;;;13.95;7.82;;;;;;;;;;5023612;28;20040;-72
2024/01/21 05:58:32;;;;;;;14.93;6.80;;;;;;;;;;5021239;28;20045;-71
2024/01/21 06:00:58;;;;;;;13.77;6.97;;;;;;;;;;5019600;28;20187;-72
2024/01/21 06:03:23;;;;;;;15.98;6.95;;;;;;;;;;5033725;28;20048;-72
2024/01/21 06:05:48;;;;;;;14.82;5.97;;;;;;;;;;5030352;28;20440;-71
2024/01/21 06:08:14;;;;;;;9.48;4.78;;;;;;;;;;5042057;28;20171;-71
2024/01/21 06:10:39;;;;;;;12.40;5.28;;;;;;;;;;5025298;28;20049;-72
2024/01/21 06:13:05;;;;;;;12.63;6.05;;;;;;;;;;5036307;28;20082;-72
2024/01/21 06:15:30;;;;;;;10.88;4.88;;;;;;;;;;5035912;28;20040;-71
2024/01/21 06:17:56;;;;;;;9.70;4.88;;;;;;;;;;5041169;28;20036;-71
2024/01/21 06:20:21;;;;;;;12.02;4.53;;;;;;;;;;5036349;28;20464;-71
2024/01/21 06:22:47;;;;;;;10.55;4.38;;;;;;;;;;5034451;28;20048;-71
2024/01/21 06:25:12;;;;;;;9.85;4.97;;;;;;;;;;5023415;28;20029;-72
2024/01/21 06:27:38;;;;;;;10.88;5.55;;;;;;;;;;5037261;28;20045;-71
2024/01/21 06:30:13;;;;;;;14.57;5.93;;;;;;;;;;5030642;28;20087;-71
2024/01/21 06:32:39;;;;;;;11.45;6.05;;;;;;;;;;5034599;28;20064;-71
2024/01/21 06:35:05;;;;;;;13.45;5.90;;;;;;;;;;5034160;28;20509;-71
2024/01/21 06:37:30;;;;;;;18.05;7.70;;;;;;;;;;5023604;28;20048;-71
2024/01/21 06:39:56;;;;;;;18.60;8.13;;;;;;;;;;5031370;28;20068;-70
2024/01/21 06:42:21;;;;;;;17.42;7.35;;;;;;;;;;5026235;28;20090;-71
2024/01/21 06:44:46;;;;;;;16.08;8.57;;;;;;;;;;5024688;28;20048;-71
2024/01/21 06:47:12;;;;;;;16.20;7.20;;;;;;;;;;5031005;28;20037;-70
2024/01/21 06:49:37;;;;;;;17.95;7.32;;;;;;;;;;5025469;28;20904;-71
2024/01/21 06:52:04;;;;;;;17.38;8.57;;;;;;;;;;5016746;28;20049;-71
2024/01/21 06:54:29;;;;;;;15.38;7.40;;;;;;;;;;5023778;28;20045;-71
2024/01/21 06:56:55;;;;;;;19.85;9.23;;;;;;;;;;5025436;28;20036;-71
2024/01/21 06:59:20;;;;;;;21.52;10.07;;;;;;;;;;5022289;28;20170;-71
2024/01/21 07:01:45;;;;;;;26.17;11.68;;;;;;;;;;5032937;28;20033;-71
2024/01/21 07:04:12;;;;;;;23.40;10.57;;;;;;;;;;5033137;28;20041;-71
2024/01/21 07:06:39;;;;;;;23.42;11.70;;;;;;;;;;5015953;28;20226;-71
2024/01/21 07:09:04;;;;;;;24.77;10.48;;;;;;;;;;5023035;28;20079;-71
2024/01/21 07:11:35;;;;;;;18.08;9.95;;;;;;;;;;5030707;28;20056;-71
2024/01/21 07:14:03;;;;;;;21.17;10.82;;;;;;;;;;5030952;28;20041;-71
2024/01/21 07:16:29;;;;;;;24.00;10.90;;;;;;;;;;5013010;28;20139;-71
2024/01/21 07:18:54;;;;;;;9.25;5.25;;;;;;;;;;5021898;28;20493;-70
2024/01/21 07:21:19;;;;;;;21.02;10.57;;;;;;;;;;5010931;28;20046;-71
2024/01/21 07:23:45;;;;;;;25.90;10.30;;;;;;;;;;5033259;28;20041;-70
2024/01/21 07:26:10;;;;;;;25.35;10.27;;;;;;;;;;5032518;28;20041;-71
2024/01/21 07:28:35;;;;;;;20.45;9.73;;;;;;;;;;5033210;28;20623;-72
2024/01/21 07:31:01;;;;;;;27.50;12.10;;;;;;;;;;5033499;28;20083;-71
2024/01/21 07:33:26;;;;;;;19.83;9.70;;;;;;;;;;5034656;28;20088;-72
2024/01/21 07:35:52;;;;;;;27.55;13.48;;;;;;;;;;5020540;28;20953;-71
2024/01/21 07:38:17;;;;;;;28.08;13.43;;;;;;;;;;5031456;28;20642;-71
2024/01/21 07:40:43;;;;;;;21.52;11.35;;;;;;;;;;5028222;28;20623;-72
2024/01/21 07:43:10;;;;;;;32.15;14.18;;;;;;;;;;5025718;28;20530;-72
2024/01/21 07:45:36;;;;;;;27.15;14.35;;;;;;;;;;5025056;28;20042;-72
2024/01/21 07:48:01;;;;;;;21.45;11.02;;;;;;;;;;5022307;28;20040;-72
2024/01/21 07:50:26;;;;;;;22.83;11.10;;;;;;;;;;5007132;28;20097;-74
2024/01/21 07:52:52;;;;;;;23.83;10.43;;;;;;;;;;5028983;28;20043;-71
2024/01/21 07:55:17;;;;;;;24.10;10.55;;;;;;;;;;5040093;28;20068;-71
2024/01/21 07:57:43;;;;;;;23.33;10.80;;;;;;;;;;5044470;28;20521;-71
2024/01/21 08:00:10;;;;;;;21.65;9.95;;;;;;;;;;5023702;28;20053;-70
2024/01/21 08:02:35;;;;;;;20.27;10.23;;;;;;;;;;5022900;28;20037;-71
2024/01/21 08:05:00;;;;;;;23.48;10.35;;;;;;;;;;5017774;28;20415;-72
2024/01/21 08:07:27;;;;;;;15.68;7.60;;;;;;;;;;5035746;28;20490;-72
2024/01/21 08:09:52;;;;;;;21.88;9.27;;;;;;;;;;5035947;28;20425;-72
2024/01/21 08:12:18;;;;;;;16.23;8.45;;;;;;;;;;5038276;28;20048;-72
2024/01/21 08:14:43;;;;;;;18.50;7.55;;;;;;;;;;5029845;28;20067;-72
2024/01/21 08:17:08;;;;;;;16.80;7.53;;;;;;;;;;5037777;28;20557;-72
2024/01/21 08:19:37;;;;;;;19.85;8.77;;;;;;;;;;5028227;28;20127;-72
2024/01/21 08:22:03;;;;;;;16.27;7.78;;;;;;;;;;5021261;28;20108;-71
2024/01/21 08:24:28;;;;;;;17.85;9.07;;;;;;;;;;5023505;28;20722;-72
2024/01/21 08:26:54;;;;;;;17.98;8.82;;;;;;;;;;5028918;28;20128;-72
2024/01/21 08:29:19;;;;;;;19.80;9.27;;;;;;;;;;5027468;28;20123;-73
2024/01/21 08:31:45;;;;;;;21.63;8.68;;;;;;;;;;5030835;28;20173;-72
2024/01/21 08:34:11;;;;;;;19.40;10.10;;;;;;;;;;5018710;28;20060;-72
2024/01/21 08:36:37;;;;;;;21.30;10.35;;;;;;;;;;5019239;28;20072;-73
2024/01/21 08:39:05;;;;;;;32.33;16.40;;;;;;;;;;5036350;28;20123;-72
2024/01/21 08:41:33;;;;;;;22.55;12.10;;;;;;;;;;5035225;28;20072;-72
2024/01/21 08:43:58;;;;;;;26.10;12.05;;;;;;;;;;5026878;28;20053;-72
2024/01/21 08:46:24;;;;;;;26.80;13.20;;;;;;;;;;5026346;28;20039;-73
2024/01/21 08:48:49;;;;;;;23.75;11.35;;;;;;;;;;5035159;28;20032;-73
2024/01/21 08:51:14;;;;;;;25.23;10.27;;;;;;;;;;5042802;28;20029;-73
2024/01/21 08:53:40;;;;;;;23.48;11.02;;;;;;;;;;5035433;28;20074;-73
2024/01/21 08:56:05;;;;;;;20.52;9.77;;;;;;;;;;5032595;28;20036;-73
2024/01/21 08:58:31;;;;;;;23.63;11.52;;;;;;;;;;5032966;28;20040;-73
2024/01/21 09:00:56;;;;;;;17.38;9.00;;;;;;;;;;5022879;28;20059;-73
2024/01/21 09:03:22;;;;;;;8.95;5.68;;;;;;;;;;5038680;28;20124;-77
2024/01/21 09:05:47;;;;;;;16.38;8.93;;;;;;;;;;5031974;28;20076;-73
2024/01/21 09:08:12;;;;;;;16.75;8.45;;;;;;;;;;5031675;28;20040;-73
2024/01/21 09:10:38;;;;;;;9.02;5.78;;;;;;;;;;5031358;28;20116;-73
2024/01/21 09:13:04;;;;;;;11.15;6.28;;;;;;;;;;5034957;28;20484;-73
2024/01/21 09:15:29;;;;;;;8.20;4.10;;;;;;;;;;5019911;28;20037;-73
2024/01/21 09:17:55;;;;;;;5.55;2.53;;;;;;;;;;5031380;28;20530;-73
2024/01/21 09:20:20;;;;;;;6.15;3.40;;;;;;;;;;5032173;28;20490;-73
2024/01/21 09:22:45;;;;;;;10.55;5.80;;;;;;;;;;5032047;28;20078;-73
2024/01/21 09:25:11;;;;;;;19.77;11.65;;;;;;;;;;5037567;28;20041;-73
2024/01/21 09:27:36;;;;;;;7.47;3.85;;;;;;;;;;5024265;28;20037;-73
2024/01/21 09:30:02;;;;;;;5.38;3.38;;;;;;;;;;5017371;28;20037;-73
2024/01/21 09:32:28;;;;;;;12.23;5.95;;;;;;;;;;5028875;28;20489;-73
2024/01/21 09:34:53;;;;;;;3.17;1.80;;;;;;;;;;5036939;28;20033;-73
2024/01/21 09:37:18;;;;;;;24.27;12.07;;;;;;;;;;5035016;28;20037;-73
2024/01/21 09:39:44;;;;;;;15.32;6.78;;;;;;;;;;5032990;28;20402;-73
2024/01/21 09:42:10;;;;;;;10.55;6.00;;;;;;;;;;5035888;28;20112;-73
2024/01/21 09:44:35;;;;;;;12.20;6.65;;;;;;;;;;5004857;28;20039;-73
2024/01/21 09:47:02;;;;;;;3.90;1.83;;;;;;;;;;5038557;28;20040;-73
2024/01/21 09:49:28;;;;;;;14.68;6.38;;;;;;;;;;5046841;28;20064;-73
2024/01/21 09:51:54;;;;;;;14.30;7.07;;;;;;;;;;5028354;28;20037;-73
2024/01/21 09:54:21;;;;;;;6.90;3.03;;;;;;;;;;5026337;28;20640;-73
2024/01/21 09:56:47;;;;;;;10.82;5.70;;;;;;;;;;5037051;28;20029;-73
2024/01/21 09:59:13;;;;;;;11.05;6.45;;;;;;;;;;5004984;28;20032;-73
2024/01/21 10:01:41;;;;;;;12.98;6.22;;;;;;;;;;5024501;28;20044;-74
2024/01/21 10:04:07;;;;;;;12.68;6.70;;;;;;;;;;5015607;28;20045;-73
2024/01/21 10:06:33;;;;;;;11.25;5.05;;;;;;;;;;5026433;28;20124;-73
2024/01/21 10:09:11;;;;;;;17.48;8.23;;;;;;;;;;5033229;28;20075;-73
2024/01/21 10:11:36;;;;;;;8.18;4.35;;;;;;;;;;5018593;28;20063;-73
2024/01/21 10:14:02;;;;;;;9.15;4.47;;;;;;;;;;5023064;28;20526;-73
2024/01/21 10:16:27;;;;;;;3.53;2.50;;;;;;;;;;5031053;28;20056;-73
2024/01/21 10:18:52;;;;;;;4.22;3.13;;;;;;;;;;5020521;28;20935;-75
2024/01/21 10:21:19;;;;;;;2.60;2.40;;;;;;;;;;5009616;28;20099;-73
2024/01/21 10:23:46;;;;;;;3.35;1.98;;;;;;;;;;5028449;28;20037;-72
2024/01/21 10:26:11;;;;;;;4.22;2.38;;;;;;;;;;5021773;28;20528;-73
2024/01/21 10:28:39;;;;;;;8.45;3.90;;;;;;;;;;5022556;28;20045;-75
2024/01/21 10:31:06;;;;;;;8.55;3.50;;;;;;;;;;5024343;28;20052;-73
2024/01/21 10:33:32;;;;;;;7.63;2.95;;;;;;;;;;5033400;28;20073;-75
2024/01/21 10:36:02;;;;;;;13.93;7.18;;;;;;;;;;5024197;28;20645;-73
2024/01/21 10:38:31;;;;;;;9.90;4.18;;;;;;;;;;5025194;28;20047;-73
2024/01/21 10:40:56;;;;;;;10.10;5.28;;;;;;;;;;5033681;28;20658;-74
2024/01/21 10:43:22;;;;;;;5.07;2.97;;;;;;;;;;5035336;28;20037;-74
2024/01/21 10:45:49;;;;;;;11.55;5.40;;;;;;;;;;5029721;28;20113;-73
2024/01/21 10:48:15;;;;;;;3.05;2.30;;;;;;;;;;5037117;28;20611;-74
2024/01/21 10:50:42;;;;;;;9.23;5.50;;;;;;;;;;5029646;28;20603;-74
2024/01/21 10:53:10;;;;;;;7.15;4.13;;;;;;;;;;5017419;28;20121;-73
2024/01/21 10:55:38;;;;;;;6.95;4.00;;;;;;;;;;5014556;28;20433;-74
2024/01/21 10:58:05;;;;;;;7.57;4.40;;;;;;;;;;5030096;28;20044;-74
2024/01/21 11:00:30;;;;;;;4.75;2.78;;;;;;;;;;5022490;28;20132;-73
2024/01/21 11:03:25;;;;;;;7.10;3.58;;;;;;;;;;5039989;28;20118;-73
2024/01/21 11:05:57;;;;;;;6.15;3.90;;;;;;;;;;5023953;28;20033;-74
2024/01/21 11:08:24;;;;;;;7.03;3.78;;;;;;;;;;5023530;28;20090;-74
2024/01/21 11:11:00;;;;;;;6.07;4.35;;;;;;;;;;5024405;28;20071;-74
2024/01/21 11:13:50;;;;;;;6.78;4.20;;;;;;;;;;5038339;28;20040;-73
2024/01/21 11:16:30;;;;;;;5.55;3.38;;;;;;;;;;5022375;28;20037;-74
2024/01/21 11:19:08;;;;;;;6.50;3.60;;;;;;;;;;5034214;28;20046;-74
2024/01/21 11:21:40;;;;;;;7.03;4.43;;;;;;;;;;5026177;28;20033;-72
2024/01/21 11:24:16;;;;;;;12.85;4.90;;;;;;;;;;5039985;28;20460;-73
2024/01/21 11:26:45;;;;;;;3.85;1.65;;;;;;;;;;5022963;28;20066;-73
2024/01/21 11:29:24;;;;;;;7.78;4.43;;;;;;;;;;5036530;28;20040;-72
2024/01/21 11:31:55;;;;;;;6.65;3.53;;;;;;;;;;5026431;28;20042;-73
2024/01/21 11:34:21;;;;;;;7.35;4.13;;;;;;;;;;5034090;28;20028;-72
2024/01/21 11:36:47;;;;;;;4.88;2.25;;;;;;;;;;5036775;28;20647;-73
2024/01/21 11:39:12;;;;;;;6.85;3.58;;;;;;;;;;5026421;28;20043;-73
2024/01/21 11:41:41;;;;;;;9.90;4.50;;;;;;;;;;5034690;28;20564;-73
2024/01/21 11:44:14;;;;;;;8.23;4.03;;;;;;;;;;5034926;28;20051;-73
2024/01/21 11:46:42;;;;;;;8.77;4.75;;;;;;;;;;5029400;28;20033;-73
2024/01/21 11:49:11;;;;;;;7.80;3.60;;;;;;;;;;5036779;28;20107;-73
2024/01/21 11:51:40;;;;;;;12.32;6.15;;;;;;;;;;5015922;28;20136;-72
2024/01/21 11:54:06;;;;;;;5.85;3.33;;;;;;;;;;5020675;28;20498;-72
2024/01/21 11:56:32;;;;;;;6.50;4.07;;;;;;;;;;5033305;28;20135;-73
2024/01/21 11:58:58;;;;;;;5.70;3.92;;;;;;;;;;5038657;28;20565;-72
2024/01/21 12:01:27;;;;;;;8.52;4.05;;;;;;;;;;5026353;28;20510;-72
2024/01/21 12:03:53;;;;;;;10.15;5.30;;;;;;;;;;5013567;28;20544;-72
2024/01/21 12:06:19;;;;;;;8.48;5.10;;;;;;;;;;5030340;28;20078;-72
2024/01/21 12:08:45;;;;;;;10.73;5.53;;;;;;;;;;5035676;28;20050;-72
2024/01/21 12:11:12;;;;;;;10.05;5.20;;;;;;;;;;5027350;28;21113;-72
2024/01/21 12:13:43;;;;;;;7.85;4.22;;;;;;;;;;5022023;28;20068;-72
2024/01/21 12:16:09;;;;;;;8.83;4.70;;;;;;;;;;5026138;28;20124;-72
2024/01/21 12:18:43;;;;;;;6.93;3.90;;;;;;;;;;5018901;28;20136;-71
2024/01/21 12:21:13;;;;;;;9.40;4.95;;;;;;;;;;5034096;28;20029;-72
2024/01/21 12:23:42;;;;;;;7.28;4.53;;;;;;;;;;5025855;28;20420;-72
2024/01/21 12:26:08;;;;;;;6.88;3.97;;;;;;;;;;5024306;28;20041;-71
2024/01/21 12:28:34;;;;;;;10.80;5.25;;;;;;;;;;5029305;28;21005;-72
2024/01/21 12:31:00;;;;;;;14.88;5.65;;;;;;;;;;5022530;28;20052;-72
2024/01/21 12:33:26;;;;;;;6.13;2.97;;;;;;;;;;5014852;28;20606;-73
2024/01/21 12:35:52;;;;;;;11.15;5.97;;;;;;;;;;5025366;28;20052;-71
2024/01/21 12:38:18;;;;;;;8.02;4.25;;;;;;;;;;5031713;28;20524;-72
2024/01/21 12:40:44;;;;;;;10.02;4.30;;;;;;;;;;5023069;28;20072;-72
2024/01/21 12:43:09;;;;;;;12.07;6.85;;;;;;;;;;5026890;28;20060;-72
2024/01/21 12:45:35;;;;;;;7.95;4.70;;;;;;;;;;5017064;28;20037;-72
2024/01/21 12:48:01;;;;;;;10.13;6.00;;;;;;;;;;5023510;28;20044;-71
2024/01/21 12:50:26;;;;;;;7.72;5.00;;;;;;;;;;5020410;28;20045;-72
2024/01/21 12:52:52;;;;;;;10.82;5.85;;;;;;;;;;5029425;28;20040;-72
2024/01/21 12:55:17;;;;;;;9.15;5.15;;;;;;;;;;5029711;28;20172;-72
2024/01/21 12:57:43;;;;;;;16.30;5.65;;;;;;;;;;5028786;28;20033;-71
2024/01/21 13:00:09;;;;;;;10.07;4.97;;;;;;;;;;5020286;28;20412;-72
2024/01/21 13:02:34;;;;;;;10.38;5.70;;;;;;;;;;5030246;28;20039;-71
2024/01/21 13:04:59;;;;;;;3.95;2.83;;;;;;;;;;5033732;28;20116;-72
2024/01/21 13:07:25;;;;;;;8.60;5.38;;;;;;;;;;5032735;28;20063;-73
2024/01/21 13:09:50;;;;;;;10.82;6.43;;;;;;;;;;5032821;28;20041;-73
2024/01/21 13:12:16;;;;;;;11.00;5.60;;;;;;;;;;5030734;28;20045;-73
2024/01/21 13:14:41;;;;;;;7.20;4.32;;;;;;;;;;5030573;28;20112;-73
2024/01/21 13:17:07;;;;;;;9.23;5.15;;;;;;;;;;5035296;28;20048;-73
2024/01/21 13:19:32;;;;;;;7.90;4.20;;;;;;;;;;5028675;28;20120;-73
2024/01/21 13:22:05;;;;;;;11.13;4.93;;;;;;;;;;5025363;28;20033;-73
2024/01/21 13:24:31;;;;;;;5.68;3.40;;;;;;;;;;5028474;28;20048;-73
2024/01/21 13:26:57;;;;;;;9.05;4.07;;;;;;;;;;5031023;28;20064;-73
2024/01/21 13:32:06;;;;;;;7.55;3.47;;;;;;;;;;5028011;28;20532;-73
2024/01/21 13:34:32;;;;;;;7.03;3.85;;;;;;;;;;5023061;28;20049;-72
2024/01/21 13:36:58;;;;;;;5.00;2.75;;;;;;;;;;5029918;28;20036;-73
2024/01/21 13:39:25;;;;;;;8.27;4.82;;;;;;;;;;5019374;28;20414;-73
2024/01/21 13:41:53;;;;;;;11.45;6.18;;;;;;;;;;5017114;28;20069;-73
2024/01/21 13:44:18;;;;;;;7.38;4.05;;;;;;;;;;5042648;28;20056;-73
2024/01/21 13:46:43;;;;;;;5.03;3.15;;;;;;;;;;5028436;28;20083;-73
2024/01/21 13:49:09;;;;;;;8.98;5.43;;;;;;;;;;5042445;28;20104;-73
2024/01/21 13:51:34;;;;;;;9.30;4.65;;;;;;;;;;5028153;28;20053;-73
2024/01/21 13:54:00;;;;;;;5.03;2.15;;;;;;;;;;5017506;28;20045;-73
2024/01/21 13:56:25;;;;;;;3.55;2.55;;;;;;;;;;5022220;28;20410;-73
2024/01/21 13:58:50;;;;;;;10.00;4.25;;;;;;;;;;5041067;28;20033;-73
2024/01/21 14:01:18;;;;;;;9.55;5.20;;;;;;;;;;5031721;28;20050;-73
2024/01/21 14:03:44;;;;;;;7.43;3.47;;;;;;;;;;5032102;28;20033;-73
2024/01/21 14:06:09;;;;;;;10.43;5.20;;;;;;;;;;5024293;28;20445;-73
2024/01/21 14:08:34;;;;;;;10.10;5.32;;;;;;;;;;5017428;28;20033;-73
2024/01/21 14:11:00;;;;;;;12.30;5.25;;;;;;;;;;5041674;28;20038;-73
2024/01/21 14:13:25;;;;;;;9.38;5.57;;;;;;;;;;5023126;28;20038;-73
2024/01/21 14:15:51;;;;;;;9.80;5.40;;;;;;;;;;5020412;28;20029;-72
2024/01/21 14:18:16;;;;;;;6.60;3.80;;;;;;;;;;5024718;28;20045;-73
2024/01/21 14:20:42;;;;;;;9.93;5.07;;;;;;;;;;5043316;28;20036;-73
2024/01/21 14:23:07;;;;;;;8.88;3.35;;;;;;;;;;5029598;28;20492;-73
2024/01/21 14:25:39;;;;;;;9.60;5.13;;;;;;;;;;5050152;28;20048;-73
2024/01/21 14:28:05;;;;;;;7.70;4.00;;;;;;;;;;5029544;28;20033;-73
2024/01/21 14:30:32;;;;;;;9.60;4.68;;;;;;;;;;5025503;28;20053;-73